createdAt,value
2017-10-16T00:00:05.099Z,16.27
2017-10-16T00:00:18.013Z,16.32
2017-10-16T00:00:31.506Z,16.29
2017-10-16T00:00:44.381Z,16.42
2017-10-16T00:00:57.842Z,16.33
2017-10-16T00:01:10.766Z,16.44
2017-10-16T00:01:24.220Z,16.33
2017-10-16T00:01:37.723Z,16.34
2017-10-16T00:01:50.693Z,16.33
2017-10-16T00:02:03.582Z,16.3
2017-10-16T00:02:17.619Z,16.33
2017-10-16T00:02:30.568Z,16.3
2017-10-16T00:02:43.991Z,16.29
2017-10-16T00:02:57.474Z,16.39
2017-10-16T00:03:09.874Z,16.37
2017-10-16T00:03:23.379Z,16.39
2017-10-16T00:03:35.784Z,16.37
2017-10-16T00:03:49.288Z,16.34
2017-10-16T00:04:02.199Z,16.4
2017-10-16T00:04:15.684Z,16.29
2017-10-16T00:04:28.669Z,16.4
2017-10-16T00:04:41.655Z,16.36
2017-10-16T00:04:55.140Z,16.34
2017-10-16T00:05:08.032Z,16.39
2017-10-16T00:05:21.444Z,16.39
2017-10-16T00:05:34.876Z,16.3
2017-10-16T00:05:47.799Z,16.36
2017-10-16T00:06:01.274Z,16.34
2017-10-16T00:06:13.652Z,16.32
2017-10-16T00:06:27.124Z,16.3
2017-10-16T00:06:40.669Z,16.3
2017-10-16T00:06:54.226Z,16.34
2017-10-16T00:07:07.121Z,16.34
2017-10-16T00:07:20.853Z,16.39
2017-10-16T00:07:34.362Z,16.32
2017-10-16T00:07:47.979Z,16.34
2017-10-16T00:08:01.601Z,16.37
2017-10-16T00:08:14.013Z,16.4
2017-10-16T00:08:27.480Z,16.37
2017-10-16T00:08:40.964Z,16.45
2017-10-16T00:08:55.208Z,16.34
2017-10-16T00:09:08.183Z,16.34
2017-10-16T00:09:23.008Z,16.4
2017-10-16T00:09:36.458Z,16.39
2017-10-16T00:09:50.319Z,16.44
2017-10-16T00:10:03.747Z,16.4
2017-10-16T00:10:16.735Z,16.39
2017-10-16T00:10:29.651Z,16.37
2017-10-16T00:10:43.364Z,16.4
2017-10-16T00:10:56.855Z,16.37
2017-10-16T00:11:10.295Z,16.3
2017-10-16T00:11:23.460Z,16.4
2017-10-16T00:11:36.947Z,16.32
2017-10-16T00:11:51.374Z,16.44
2017-10-16T00:12:04.824Z,16.36
2017-10-16T00:12:19.811Z,16.36
2017-10-16T00:12:33.298Z,16.34
2017-10-16T00:12:46.780Z,16.39
2017-10-16T00:13:00.990Z,16.34
2017-10-16T00:13:14.453Z,16.3
2017-10-16T00:13:27.898Z,16.32
2017-10-16T00:13:41.318Z,16.32
2017-10-16T00:13:54.757Z,16.33
2017-10-16T00:14:07.730Z,16.33
2017-10-16T00:14:20.663Z,16.33
2017-10-16T00:14:36.028Z,16.32
2017-10-16T00:14:49.521Z,16.36
2017-10-16T00:15:07.247Z,16.33
2017-10-16T00:15:21.974Z,16.33
2017-10-16T00:15:35.413Z,16.29
2017-10-16T00:15:48.584Z,16.32
2017-10-16T00:16:09.267Z,16.34
2017-10-16T00:16:25.261Z,16.34
2017-10-16T00:16:38.685Z,16.34
2017-10-16T00:16:51.104Z,16.44
2017-10-16T00:17:04.858Z,16.39
2017-10-16T00:17:18.653Z,16.44
2017-10-16T00:17:31.643Z,16.34
2017-10-16T00:17:45.862Z,16.3
2017-10-16T00:17:58.732Z,16.44
2017-10-16T00:18:11.108Z,16.36
2017-10-16T00:18:24.273Z,16.42
2017-10-16T00:18:37.757Z,16.36
2017-10-16T00:18:51.271Z,16.4
2017-10-16T00:19:11.232Z,16.36
2017-10-16T00:19:24.965Z,16.29
2017-10-16T00:19:49.455Z,16.36
2017-10-16T00:20:11.317Z,16.34
2017-10-16T00:20:27.199Z,16.42
2017-10-16T00:20:46.724Z,16.32
2017-10-16T00:21:00.436Z,16.3
2017-10-16T00:21:15.355Z,16.44
2017-10-16T00:21:41.255Z,16.4
2017-10-16T00:21:53.649Z,16.47
2017-10-16T00:22:17.499Z,16.44
2017-10-16T00:22:29.877Z,16.4
2017-10-16T00:22:43.659Z,16.45
2017-10-16T00:22:57.121Z,16.47
2017-10-16T00:23:10.621Z,16.37
2017-10-16T00:23:24.048Z,16.39
2017-10-16T00:23:51.990Z,16.4
2017-10-16T00:24:05.694Z,16.39
2017-10-16T00:24:18.589Z,16.37
2017-10-16T00:24:32.043Z,16.47
2017-10-16T00:24:45.454Z,16.36
2017-10-16T00:24:58.373Z,16.39
2017-10-16T00:25:11.911Z,16.44
2017-10-16T00:25:25.389Z,16.39
2017-10-16T00:25:38.953Z,16.34
2017-10-16T00:25:52.442Z,16.47
2017-10-16T00:26:05.398Z,16.39
2017-10-16T00:26:19.050Z,16.37
2017-10-16T00:26:32.736Z,16.48
2017-10-16T00:26:46.208Z,16.44
2017-10-16T00:26:59.698Z,16.45
2017-10-16T00:27:13.166Z,16.48
2017-10-16T00:27:26.173Z,16.39
2017-10-16T00:27:39.588Z,16.47
2017-10-16T00:27:53.057Z,16.36
2017-10-16T00:28:06.465Z,16.36
2017-10-16T00:28:19.990Z,16.4
2017-10-16T00:28:33.495Z,16.42
2017-10-16T00:28:47.418Z,16.42
2017-10-16T00:29:00.432Z,16.4
2017-10-16T00:29:13.888Z,16.42
2017-10-16T00:29:27.356Z,16.48
2017-10-16T00:29:42.442Z,16.47
2017-10-16T00:29:57.816Z,16.37
2017-10-16T00:31:07.806Z,16.39
2017-10-16T00:31:20.180Z,16.42
2017-10-16T00:31:40.812Z,16.45
2017-10-16T00:32:06.027Z,16.42
2017-10-16T00:32:23.249Z,16.4
2017-10-16T00:32:37.462Z,16.51
2017-10-16T00:33:58.357Z,16.47
2017-10-16T00:34:11.256Z,16.45
2017-10-16T00:34:24.728Z,16.42
2017-10-16T00:34:38.206Z,16.42
2017-10-16T00:34:51.067Z,16.39
2017-10-16T00:35:04.048Z,16.42
2017-10-16T00:35:17.526Z,16.48
2017-10-16T00:35:29.933Z,16.45
2017-10-16T00:35:43.378Z,16.42
2017-10-16T00:35:56.845Z,16.45
2017-10-16T00:36:09.204Z,16.45
2017-10-16T00:37:38.712Z,16.48
2017-10-16T00:38:04.986Z,16.45
2017-10-16T00:38:23.502Z,16.47
2017-10-16T00:38:44.427Z,16.48
2017-10-16T00:38:57.402Z,16.42
2017-10-16T00:39:09.810Z,16.54
2017-10-16T00:39:30.836Z,16.44
2017-10-16T00:39:45.286Z,16.48
2017-10-16T00:40:13.821Z,16.45
2017-10-16T00:40:30.588Z,16.4
2017-10-16T00:41:15.164Z,16.49
2017-10-16T00:41:42.146Z,16.51
2017-10-16T00:42:02.143Z,16.42
2017-10-16T00:42:14.043Z,16.42
2017-10-16T00:42:58.115Z,16.44
2017-10-16T00:44:52.138Z,16.48
2017-10-16T00:45:53.368Z,16.58
2017-10-16T00:47:14.226Z,16.44
2017-10-16T00:47:40.407Z,16.48
2017-10-16T00:48:25.161Z,16.44
2017-10-16T00:48:37.622Z,16.47
2017-10-16T00:48:56.847Z,16.47
2017-10-16T00:49:25.702Z,16.49
2017-10-16T00:49:42.972Z,16.52
2017-10-16T00:49:56.406Z,16.49
2017-10-16T00:50:16.249Z,16.47
2017-10-16T00:50:29.152Z,16.44
2017-10-16T00:50:42.665Z,16.39
2017-10-16T00:51:27.319Z,16.49
2017-10-16T00:52:12.534Z,16.44
2017-10-16T00:52:39.464Z,16.58
2017-10-16T00:53:20.256Z,16.57
2017-10-16T00:54:07.664Z,16.48
2017-10-16T00:54:22.211Z,16.54
2017-10-16T00:54:35.123Z,16.47
2017-10-16T00:54:54.382Z,16.45
2017-10-16T00:55:17.039Z,16.47
2017-10-16T00:55:30.057Z,16.58
2017-10-16T00:55:46.607Z,16.45
2017-10-16T00:56:35.251Z,16.49
2017-10-16T00:56:48.688Z,16.49
2017-10-16T00:58:26.498Z,16.44
2017-10-16T00:58:40.054Z,16.51
2017-10-16T00:58:58.337Z,16.37
2017-10-16T00:59:11.284Z,16.44
2017-10-16T00:59:24.792Z,16.49
2017-10-16T00:59:37.754Z,16.44
2017-10-16T01:00:02.696Z,16.48
2017-10-16T01:01:00.517Z,16.48
2017-10-16T10:06:57.720Z,18.51
2017-10-16T10:07:11.198Z,18.51
2017-10-16T10:07:24.662Z,18.47
2017-10-16T10:07:38.134Z,18.53
2017-10-16T10:07:51.544Z,18.54
2017-10-16T10:08:03.941Z,18.53
2017-10-16T10:08:16.882Z,18.63
2017-10-16T10:08:30.331Z,18.53
2017-10-16T10:08:42.658Z,18.56
2017-10-16T10:08:55.007Z,18.54
2017-10-16T10:09:08.479Z,18.57
2017-10-16T10:09:21.922Z,18.57
2017-10-16T10:09:35.378Z,18.56
2017-10-16T10:09:48.243Z,18.59
2017-10-16T10:10:01.732Z,18.63
2017-10-16T10:10:14.698Z,18.56
2017-10-16T10:10:28.180Z,18.53
2017-10-16T10:10:41.655Z,18.59
2017-10-16T10:10:55.091Z,18.47
2017-10-16T10:11:07.959Z,18.57
2017-10-16T10:11:21.441Z,18.53
2017-10-16T10:11:34.877Z,18.5
2017-10-16T10:11:47.742Z,18.49
2017-10-16T10:12:01.172Z,18.57
2017-10-16T10:12:13.005Z,18.63
2017-10-16T10:12:25.410Z,18.56
2017-10-16T10:12:38.312Z,18.51
2017-10-16T10:12:51.724Z,18.61
2017-10-16T10:13:04.630Z,18.47
2017-10-16T10:13:18.124Z,18.47
2017-10-16T10:13:31.573Z,18.5
2017-10-16T10:13:43.935Z,18.53
2017-10-16T10:13:57.386Z,18.5
2017-10-16T10:14:10.277Z,18.56
2017-10-16T10:14:23.213Z,18.59
2017-10-16T10:14:36.124Z,18.5
2017-10-16T10:14:49.534Z,18.53
2017-10-16T10:15:03.008Z,18.54
2017-10-16T10:15:16.508Z,18.53
2017-10-16T10:15:29.911Z,18.47
2017-10-16T10:15:43.371Z,18.6
2017-10-16T10:15:56.861Z,18.5
2017-10-16T10:16:10.268Z,18.59
2017-10-16T10:16:23.184Z,18.49
2017-10-16T10:16:36.620Z,18.56
2017-10-16T10:16:49.524Z,18.45
2017-10-16T10:17:02.993Z,18.41
2017-10-16T10:17:16.405Z,18.45
2017-10-16T10:17:29.834Z,18.5
2017-10-16T10:17:42.746Z,18.47
2017-10-16T10:17:55.640Z,18.57
2017-10-16T10:18:07.989Z,18.5
2017-10-16T10:18:21.447Z,18.53
2017-10-16T10:18:34.895Z,18.54
2017-10-16T10:18:48.313Z,18.63
2017-10-16T10:19:00.683Z,18.57
2017-10-16T10:19:13.631Z,18.56
2017-10-16T10:19:25.986Z,18.6
2017-10-16T10:19:38.851Z,18.65
2017-10-16T10:19:52.299Z,18.56
2017-10-16T10:20:05.214Z,18.56
2017-10-16T10:20:18.672Z,18.66
2017-10-16T10:20:32.125Z,18.63
2017-10-16T10:20:45.181Z,18.81
2017-10-16T10:20:58.670Z,18.84
2017-10-16T10:21:11.020Z,18.91
2017-10-16T10:21:23.933Z,18.96
2017-10-16T10:21:36.823Z,19.06
2017-10-16T10:21:50.282Z,19.02
2017-10-16T10:22:03.734Z,19.13
2017-10-16T10:22:15.588Z,19.16
2017-10-16T10:22:29.043Z,19.27
2017-10-16T10:22:42.450Z,19.24
2017-10-16T10:22:55.882Z,19.38
2017-10-16T10:23:09.369Z,19.37
2017-10-16T10:23:22.857Z,19.38
2017-10-16T10:23:36.284Z,19.38
2017-10-16T10:23:49.802Z,19.37
2017-10-16T10:24:03.223Z,19.38
2017-10-16T10:24:16.129Z,19.38
2017-10-16T10:24:29.647Z,19.38
2017-10-16T10:24:43.168Z,19.38
2017-10-16T10:24:56.609Z,19.35
2017-10-16T10:25:08.974Z,19.46
2017-10-16T10:25:21.944Z,19.4
2017-10-16T10:25:34.850Z,19.43
2017-10-16T10:25:47.789Z,19.45
2017-10-16T10:26:01.209Z,19.45
2017-10-16T10:26:14.089Z,19.43
2017-10-16T10:26:27.553Z,19.38
2017-10-16T10:26:39.924Z,19.4
2017-10-16T10:26:53.353Z,19.38
2017-10-16T10:27:05.707Z,19.35
2017-10-16T10:27:19.212Z,19.4
2017-10-16T10:27:32.083Z,19.4
2017-10-16T10:27:43.873Z,19.4
2017-10-16T10:27:56.814Z,19.42
2017-10-16T10:28:10.230Z,19.31
2017-10-16T10:28:22.626Z,19.28
2017-10-16T10:28:35.561Z,19.25
2017-10-16T10:28:48.515Z,19.17
2017-10-16T10:29:01.928Z,19.24
2017-10-16T10:29:14.813Z,19.24
2017-10-16T10:29:28.172Z,19.3
2017-10-16T10:29:41.072Z,19.24
2017-10-16T10:29:54.529Z,19.25
2017-10-16T10:30:06.906Z,19.27
2017-10-16T10:30:20.355Z,19.28
2017-10-16T10:30:33.236Z,19.19
2017-10-16T10:30:46.154Z,19.3
2017-10-16T10:30:59.682Z,19.25
2017-10-16T10:31:12.598Z,19.38
2017-10-16T10:31:26.043Z,19.4
2017-10-16T10:31:39.480Z,19.43
2017-10-16T10:31:52.928Z,19.5
2017-10-16T10:32:06.417Z,19.43
2017-10-16T10:32:18.804Z,19.42
2017-10-16T10:32:31.709Z,19.43
2017-10-16T10:32:45.188Z,19.49
2017-10-16T10:32:58.057Z,19.53
2017-10-16T10:33:11.145Z,19.6
2017-10-16T10:33:24.549Z,19.57
2017-10-16T10:33:37.508Z,19.67
2017-10-16T10:33:50.447Z,19.65
2017-10-16T10:34:03.358Z,19.67
2017-10-16T10:34:16.264Z,19.67
2017-10-16T10:34:29.229Z,19.61
2017-10-16T10:34:42.701Z,19.65
2017-10-16T10:34:56.180Z,19.68
2017-10-16T10:35:09.612Z,19.65
2017-10-16T10:35:22.498Z,19.68
2017-10-16T10:35:35.388Z,19.68
2017-10-16T10:35:48.947Z,19.64
2017-10-16T10:36:03.777Z,19.64
2017-10-16T10:36:16.162Z,19.63
2017-10-16T10:36:29.041Z,19.53
2017-10-16T10:36:41.974Z,19.57
2017-10-16T10:36:54.387Z,19.57
2017-10-16T10:37:07.821Z,19.56
2017-10-16T10:37:21.221Z,19.56
2017-10-16T10:37:34.145Z,19.55
2017-10-16T10:37:47.554Z,19.55
2017-10-16T10:38:00.985Z,19.5
2017-10-16T10:38:13.374Z,19.45
2017-10-16T10:38:25.711Z,19.49
2017-10-16T10:38:38.674Z,19.47
2017-10-16T10:38:51.538Z,19.52
2017-10-16T10:39:04.984Z,19.49
2017-10-16T10:39:18.453Z,19.46
2017-10-16T10:39:33.254Z,19.46
2017-10-16T10:39:46.743Z,19.46
2017-10-16T10:40:00.138Z,19.46
2017-10-16T10:40:11.931Z,19.45
2017-10-16T10:40:24.860Z,19.43
2017-10-16T10:40:37.770Z,19.46
2017-10-16T10:40:50.715Z,19.63
2017-10-16T10:41:04.193Z,19.7
2017-10-16T10:41:17.622Z,19.68
2017-10-16T10:41:30.554Z,19.75
2017-10-16T10:41:44.003Z,19.79
2017-10-16T10:41:57.493Z,19.79
2017-10-16T10:42:10.439Z,19.86
2017-10-16T10:42:23.898Z,19.8
2017-10-16T10:42:37.284Z,19.89
2017-10-16T10:42:49.613Z,19.8
2017-10-16T10:43:03.025Z,19.86
2017-10-16T10:43:15.394Z,19.72
2017-10-16T10:43:28.870Z,19.8
2017-10-16T10:43:41.718Z,19.82
2017-10-16T10:43:54.695Z,19.78
2017-10-16T10:44:08.117Z,19.74
2017-10-16T10:44:21.563Z,19.65
2017-10-16T10:44:34.454Z,19.74
2017-10-16T10:44:46.844Z,19.64
2017-10-16T10:45:00.287Z,19.67
2017-10-16T10:45:13.182Z,19.67
2017-10-16T10:45:26.090Z,19.65
2017-10-16T10:45:39.536Z,19.63
2017-10-16T10:45:53.017Z,19.52
2017-10-16T10:46:05.900Z,19.57
2017-10-16T10:46:18.812Z,19.47
2017-10-16T10:46:32.299Z,19.57
2017-10-16T10:46:45.259Z,19.53
2017-10-16T10:46:58.666Z,19.56
2017-10-16T10:47:12.115Z,19.52
2017-10-16T10:47:25.526Z,19.45
2017-10-16T10:47:38.439Z,19.53
2017-10-16T10:47:51.873Z,19.4
2017-10-16T10:48:05.338Z,19.37
2017-10-16T10:48:18.217Z,19.46
2017-10-16T10:48:31.628Z,19.63
2017-10-16T10:48:44.485Z,19.64
2017-10-16T10:48:57.917Z,19.63
2017-10-16T10:49:10.830Z,19.68
2017-10-16T10:49:24.302Z,19.74
2017-10-16T10:49:37.760Z,19.82
2017-10-16T10:49:51.199Z,19.86
2017-10-16T10:50:04.136Z,19.85
2017-10-16T10:50:17.074Z,19.93
2017-10-16T10:50:30.477Z,20
2017-10-16T10:50:43.909Z,19.93
2017-10-16T10:50:56.905Z,19.8
2017-10-16T10:51:09.799Z,19.92
2017-10-16T10:51:22.174Z,19.87
2017-10-16T10:51:35.066Z,19.85
2017-10-16T10:51:48.550Z,19.8
2017-10-16T10:52:01.447Z,19.93
2017-10-16T10:52:14.842Z,19.97
2017-10-16T10:52:27.782Z,20.05
2017-10-16T10:52:41.191Z,20
2017-10-16T10:52:54.618Z,19.98
2017-10-16T10:53:07.492Z,20
2017-10-16T10:53:20.355Z,20.1
2017-10-16T10:53:33.218Z,20.11
2017-10-16T10:53:45.595Z,20.18
2017-10-16T10:53:57.954Z,20.22
2017-10-16T10:54:10.891Z,20.27
2017-10-16T10:54:23.837Z,20.3
2017-10-16T10:54:37.339Z,20.35
2017-10-16T10:54:50.217Z,20.46
2017-10-16T10:55:03.092Z,20.35
2017-10-16T10:55:16.528Z,20.4
2017-10-16T10:55:30.009Z,20.44
2017-10-16T10:55:43.440Z,20.48
2017-10-16T10:55:56.491Z,20.57
2017-10-16T10:56:08.805Z,20.64
2017-10-16T10:56:22.216Z,20.63
2017-10-16T10:56:35.177Z,20.74
2017-10-16T10:56:48.628Z,20.68
2017-10-16T10:57:02.018Z,20.76
2017-10-16T10:57:15.464Z,20.82
2017-10-16T10:57:28.904Z,20.82
2017-10-16T10:57:42.370Z,20.93
2017-10-16T10:57:55.314Z,21.01
2017-10-16T10:58:08.174Z,21.09
2017-10-16T10:58:21.048Z,21.11
2017-10-16T10:58:34.525Z,21.13
2017-10-16T10:58:47.962Z,21.12
2017-10-16T10:59:01.414Z,21.16
2017-10-16T10:59:14.856Z,21.12
2017-10-16T10:59:28.236Z,21.13
2017-10-16T10:59:41.709Z,21.13
2017-10-16T10:59:53.395Z,21.12
2017-10-16T11:00:06.834Z,21.13
2017-10-16T11:00:19.215Z,21.12
2017-10-16T11:00:32.150Z,21.16
2017-10-16T11:00:45.607Z,21.27
2017-10-16T11:00:59.028Z,21.28
2017-10-16T11:01:11.968Z,21.25
2017-10-16T11:01:25.407Z,21.34
2017-10-16T11:01:38.865Z,21.3
2017-10-16T11:01:51.733Z,21.33
2017-10-16T11:02:04.667Z,21.36
2017-10-16T11:02:18.142Z,21.48
2017-10-16T11:02:31.030Z,21.53
2017-10-16T11:02:43.962Z,21.58
2017-10-16T11:02:56.914Z,21.67
2017-10-16T11:03:09.812Z,21.64
2017-10-16T11:03:22.725Z,21.74
2017-10-16T11:03:36.110Z,21.73
2017-10-16T11:03:49.578Z,21.77
2017-10-16T11:04:03.035Z,21.85
2017-10-16T11:04:16.457Z,21.89
2017-10-16T11:04:29.917Z,21.9
2017-10-16T11:04:43.327Z,21.92
2017-10-16T11:04:56.197Z,21.92
2017-10-16T11:05:08.629Z,22.09
2017-10-16T11:05:21.576Z,22.05
2017-10-16T11:05:33.917Z,22.2
2017-10-16T11:05:47.400Z,22.14
2017-10-16T11:06:00.913Z,22.24
2017-10-16T11:06:14.402Z,22.2
2017-10-16T11:06:27.807Z,22.26
2017-10-16T11:06:40.191Z,22.27
2017-10-16T11:06:53.685Z,22.29
2017-10-16T11:07:06.082Z,22.29
2017-10-16T11:07:18.409Z,22.24
2017-10-16T11:07:32.011Z,22.24
2017-10-16T11:07:44.383Z,22.18
2017-10-16T11:07:57.768Z,22.16
2017-10-16T11:08:10.585Z,22.18
2017-10-16T11:08:24.060Z,22.24
2017-10-16T11:08:37.541Z,22.23
2017-10-16T11:08:51.000Z,22.09
2017-10-16T11:09:02.801Z,22.11
2017-10-16T11:09:16.295Z,22.07
2017-10-16T11:09:29.802Z,22.09
2017-10-16T11:09:42.674Z,22.07
2017-10-16T11:09:55.577Z,22
2017-10-16T11:10:09.056Z,21.96
2017-10-16T11:10:22.030Z,21.99
2017-10-16T11:10:34.968Z,21.94
2017-10-16T11:10:48.436Z,21.9
2017-10-16T11:11:01.885Z,22.04
2017-10-16T11:11:14.804Z,22.07
2017-10-16T11:11:27.672Z,22.07
2017-10-16T11:11:41.078Z,22.18
2017-10-16T11:11:54.476Z,22.31
2017-10-16T11:12:07.935Z,22.26
2017-10-16T11:12:21.384Z,22.42
2017-10-16T11:12:33.704Z,22.39
2017-10-16T11:12:46.561Z,22.46
2017-10-16T11:13:00.002Z,22.46
2017-10-16T11:13:12.960Z,22.52
2017-10-16T11:13:26.395Z,22.55
2017-10-16T11:13:39.847Z,22.39
2017-10-16T11:13:52.812Z,22.33
2017-10-16T11:14:05.247Z,22.41
2017-10-16T11:14:18.732Z,22.31
2017-10-16T11:14:31.633Z,22.29
2017-10-16T11:14:44.523Z,22.31
2017-10-16T11:14:56.899Z,22.29
2017-10-16T11:15:09.771Z,22.23
2017-10-16T11:15:22.659Z,22.23
2017-10-16T11:15:36.443Z,22.27
2017-10-16T11:15:49.379Z,22.11
2017-10-16T11:16:02.882Z,22.07
2017-10-16T11:16:15.774Z,22.04
2017-10-16T11:16:28.674Z,22
2017-10-16T11:16:42.111Z,22.07
2017-10-16T11:16:55.524Z,22.05
2017-10-16T11:17:08.957Z,22.05
2017-10-16T11:17:22.384Z,21.94
2017-10-16T11:17:35.810Z,21.92
2017-10-16T11:17:49.317Z,21.83
2017-10-16T11:18:01.677Z,21.85
2017-10-16T11:18:14.620Z,21.89
2017-10-16T11:18:27.549Z,21.86
2017-10-16T11:18:40.997Z,21.85
2017-10-16T11:18:53.852Z,21.8
2017-10-16T11:19:06.798Z,21.82
2017-10-16T11:19:19.747Z,21.83
2017-10-16T11:19:31.556Z,21.86
2017-10-16T11:19:44.969Z,21.85
2017-10-16T11:19:57.881Z,21.85
2017-10-16T11:20:11.266Z,21.8
2017-10-16T11:20:24.192Z,21.74
2017-10-16T11:20:37.704Z,21.64
2017-10-16T11:20:51.207Z,21.58
2017-10-16T11:21:03.673Z,21.51
2017-10-16T11:21:17.092Z,21.36
2017-10-16T11:21:29.437Z,21.25
2017-10-16T11:21:42.340Z,21.28
2017-10-16T11:21:55.317Z,21.23
2017-10-16T11:22:08.233Z,21.3
2017-10-16T11:22:21.700Z,21.27
2017-10-16T11:22:35.127Z,21.19
2017-10-16T11:22:47.483Z,21.23
2017-10-16T11:23:00.378Z,21.15
2017-10-16T11:23:13.265Z,21.19
2017-10-16T11:23:26.751Z,21.21
2017-10-16T11:23:40.117Z,21.21
2017-10-16T11:23:53.022Z,21.18
2017-10-16T11:24:05.976Z,21.16
2017-10-16T11:24:18.895Z,21.09
2017-10-16T11:24:32.355Z,21.04
2017-10-16T11:24:45.210Z,21.06
2017-10-16T11:24:57.582Z,20.94
2017-10-16T11:25:11.068Z,20.85
2017-10-16T11:25:24.508Z,20.9
2017-10-16T11:25:36.887Z,20.96
2017-10-16T11:25:48.706Z,20.93
2017-10-16T11:26:02.204Z,20.86
2017-10-16T11:26:14.556Z,20.88
2017-10-16T11:26:28.049Z,20.94
2017-10-16T11:26:41.481Z,20.96
2017-10-16T11:26:54.403Z,20.88
2017-10-16T11:27:07.882Z,20.9
2017-10-16T11:27:19.686Z,20.9
2017-10-16T11:27:32.611Z,21.11
2017-10-16T11:27:45.563Z,21.06
2017-10-16T11:27:58.471Z,21.16
2017-10-16T11:28:11.895Z,21.18
2017-10-16T11:28:25.389Z,21.27
2017-10-16T11:28:38.283Z,21.36
2017-10-16T11:28:50.656Z,21.38
2017-10-16T11:29:03.590Z,21.51
2017-10-16T11:29:17.028Z,21.56
2017-10-16T11:29:29.939Z,21.66
2017-10-16T11:29:43.354Z,21.64
2017-10-16T11:29:56.302Z,21.64
2017-10-16T11:30:08.136Z,21.62
2017-10-16T11:30:21.052Z,21.74
2017-10-16T11:30:33.975Z,21.71
2017-10-16T11:30:46.845Z,21.7
2017-10-16T11:31:00.238Z,21.62
2017-10-16T11:31:13.090Z,21.66
2017-10-16T11:31:26.011Z,21.62
2017-10-16T11:31:38.921Z,21.58
2017-10-16T11:31:51.356Z,21.56
2017-10-16T11:32:04.281Z,21.46
2017-10-16T11:32:16.595Z,21.46
2017-10-16T11:32:30.056Z,21.43
2017-10-16T11:32:43.519Z,21.36
2017-10-16T11:32:56.421Z,21.36
2017-10-16T11:33:09.324Z,21.41
2017-10-16T11:33:21.708Z,21.41
2017-10-16T11:33:34.612Z,21.4
2017-10-16T11:33:48.006Z,21.33
2017-10-16T11:34:01.505Z,21.33
2017-10-16T11:34:14.385Z,21.36
2017-10-16T11:34:27.876Z,21.37
2017-10-16T11:34:41.315Z,21.4
2017-10-16T11:34:54.196Z,21.48
2017-10-16T11:35:07.581Z,21.36
2017-10-16T11:35:20.987Z,21.36
2017-10-16T11:35:34.457Z,21.36
2017-10-16T11:35:46.816Z,21.34
2017-10-16T11:36:00.328Z,21.27
2017-10-16T11:36:13.928Z,21.31
2017-10-16T11:36:26.802Z,21.33
2017-10-16T11:36:40.266Z,21.4
2017-10-16T11:36:53.177Z,21.34
2017-10-16T11:37:06.099Z,21.43
2017-10-16T11:37:19.586Z,21.4
2017-10-16T11:37:32.433Z,21.53
2017-10-16T11:37:45.914Z,21.58
2017-10-16T11:37:59.384Z,21.64
2017-10-16T11:38:12.825Z,21.76
2017-10-16T11:38:25.756Z,21.76
2017-10-16T11:38:39.207Z,21.66
2017-10-16T11:38:51.536Z,21.7
2017-10-16T11:39:03.929Z,21.67
2017-10-16T11:39:17.432Z,21.62
2017-10-16T11:39:30.901Z,21.61
2017-10-16T11:39:44.304Z,21.58
2017-10-16T11:39:57.728Z,21.53
2017-10-16T11:40:11.199Z,21.61
2017-10-16T11:40:24.651Z,21.58
2017-10-16T11:40:38.044Z,21.56
2017-10-16T11:40:51.511Z,21.61
2017-10-16T11:41:03.838Z,21.59
2017-10-16T11:41:16.760Z,21.62
2017-10-16T11:41:29.159Z,21.64
2017-10-16T11:41:42.045Z,21.68
2017-10-16T11:41:55.524Z,21.68
2017-10-16T11:42:08.958Z,21.8
2017-10-16T11:42:21.880Z,21.85
2017-10-16T11:42:34.798Z,21.85
2017-10-16T11:42:47.248Z,21.89
2017-10-16T11:43:00.734Z,21.89
2017-10-16T11:43:13.109Z,21.89
2017-10-16T11:43:25.013Z,21.99
2017-10-16T11:43:38.506Z,22.05
2017-10-16T11:43:51.939Z,22.02
2017-10-16T11:44:05.352Z,22.08
2017-10-16T11:44:18.246Z,22.2
2017-10-16T11:44:31.183Z,22.22
2017-10-16T11:44:44.682Z,22.31
2017-10-16T11:44:58.139Z,22.36
2017-10-16T11:45:11.051Z,22.34
2017-10-16T11:45:24.093Z,22.48
2017-10-16T11:45:36.444Z,22.51
2017-10-16T11:45:49.883Z,22.52
2017-10-16T11:46:03.367Z,22.6
2017-10-16T11:46:16.827Z,22.51
2017-10-16T11:46:29.690Z,22.6
2017-10-16T11:46:43.068Z,22.51
2017-10-16T11:46:55.963Z,22.55
2017-10-16T11:47:08.890Z,22.51
2017-10-16T11:47:21.774Z,22.6
2017-10-16T11:47:34.654Z,22.54
2017-10-16T11:47:48.111Z,22.41
2017-10-16T11:48:01.050Z,22.29
2017-10-16T11:48:13.989Z,22.38
2017-10-16T11:48:27.494Z,22.36
2017-10-16T11:48:40.387Z,22.3
2017-10-16T11:48:53.840Z,22.29
2017-10-16T11:49:06.770Z,22.34
2017-10-16T11:49:19.695Z,22.42
2017-10-16T11:49:33.196Z,22.34
2017-10-16T11:49:46.694Z,22.31
2017-10-16T11:49:59.593Z,22.33
2017-10-16T11:50:11.952Z,22.34
2017-10-16T11:50:25.370Z,22.36
2017-10-16T11:50:37.733Z,22.38
2017-10-16T11:50:49.540Z,22.44
2017-10-16T11:51:03.039Z,22.3
2017-10-16T11:51:16.050Z,22.38
2017-10-16T11:51:28.956Z,22.41
2017-10-16T11:51:42.427Z,22.31
2017-10-16T11:51:55.348Z,22.42
2017-10-16T11:52:08.776Z,22.54
2017-10-16T11:52:22.202Z,22.52
2017-10-16T11:52:35.071Z,22.54
2017-10-16T11:52:48.496Z,22.51
2017-10-16T11:53:01.424Z,22.57
2017-10-16T11:53:14.889Z,22.63
2017-10-16T11:53:27.830Z,22.67
2017-10-16T11:53:41.275Z,22.69
2017-10-16T11:53:54.681Z,22.73
2017-10-16T11:54:08.110Z,22.81
2017-10-16T11:54:21.034Z,22.73
2017-10-16T11:54:34.426Z,22.78
2017-10-16T11:54:47.355Z,22.85
2017-10-16T11:54:59.710Z,22.85
2017-10-16T11:55:12.107Z,22.85
2017-10-16T11:55:24.480Z,22.89
2017-10-16T11:55:37.393Z,22.99
2017-10-16T11:55:50.859Z,22.92
2017-10-16T11:56:03.726Z,23.04
2017-10-16T11:56:17.113Z,23.1
2017-10-16T11:56:30.537Z,23.04
2017-10-16T11:56:43.477Z,23.12
2017-10-16T11:56:56.419Z,23.07
2017-10-16T11:57:08.738Z,23.15
2017-10-16T11:57:21.143Z,23.29
2017-10-16T11:57:34.130Z,23.32
2017-10-16T11:57:46.521Z,23.4
2017-10-16T11:57:59.409Z,23.4
2017-10-16T11:58:12.303Z,23.62
2017-10-16T11:58:25.772Z,23.63
2017-10-16T11:58:39.213Z,23.63
2017-10-16T11:58:52.629Z,23.57
2017-10-16T11:59:05.512Z,23.55
2017-10-16T11:59:18.952Z,23.78
2017-10-16T11:59:32.396Z,23.7
2017-10-16T11:59:45.828Z,23.71
2017-10-16T11:59:59.300Z,23.81
2017-10-16T12:00:12.255Z,23.92
2017-10-16T12:00:25.146Z,23.89
2017-10-16T12:00:38.033Z,24.03
2017-10-16T12:00:51.472Z,24.03
2017-10-16T12:01:04.945Z,24.14
2017-10-16T12:01:17.941Z,24.08
2017-10-16T12:01:31.414Z,24.17
2017-10-16T12:01:44.796Z,24.12
2017-10-16T12:01:58.189Z,24.08
2017-10-16T12:02:11.075Z,24.07
2017-10-16T12:02:23.939Z,24.04
2017-10-16T12:02:36.794Z,24.02
2017-10-16T12:02:50.305Z,24.03
2017-10-16T12:03:03.218Z,24.03
2017-10-16T12:03:16.657Z,24.02
2017-10-16T12:03:29.068Z,24.04
2017-10-16T12:03:41.996Z,24.07
2017-10-16T12:03:54.885Z,24.08
2017-10-16T12:04:07.273Z,24
2017-10-16T12:04:20.703Z,24.03
2017-10-16T12:04:33.607Z,23.99
2017-10-16T12:04:47.086Z,23.89
2017-10-16T12:04:59.423Z,23.81
2017-10-16T12:05:12.374Z,23.77
2017-10-16T12:05:25.844Z,23.71
2017-10-16T12:05:39.304Z,23.57
2017-10-16T12:05:52.217Z,23.59
2017-10-16T12:06:05.654Z,23.53
2017-10-16T12:06:18.941Z,23.44
2017-10-16T12:06:32.367Z,23.42
2017-10-16T12:06:45.235Z,23.37
2017-10-16T12:06:58.701Z,23.38
2017-10-16T12:07:11.623Z,23.37
2017-10-16T12:07:25.071Z,23.38
2017-10-16T12:07:36.882Z,23.4
2017-10-16T12:07:49.781Z,23.44
2017-10-16T12:08:02.706Z,23.48
2017-10-16T12:08:16.211Z,23.41
2017-10-16T12:08:29.685Z,23.48
2017-10-16T12:08:42.035Z,23.4
2017-10-16T12:08:55.453Z,23.5
2017-10-16T12:09:08.906Z,23.4
2017-10-16T12:09:21.286Z,23.4
2017-10-16T12:09:34.719Z,23.35
2017-10-16T12:09:48.173Z,23.4
2017-10-16T12:10:01.657Z,23.34
2017-10-16T12:10:13.999Z,23.34
2017-10-16T12:10:26.327Z,23.26
2017-10-16T12:10:39.800Z,23.22
2017-10-16T12:10:52.744Z,23.15
2017-10-16T12:11:05.066Z,23.19
2017-10-16T12:11:18.501Z,23.18
2017-10-16T12:11:31.960Z,23.09
2017-10-16T12:11:45.442Z,23.07
2017-10-16T12:11:58.873Z,23.12
2017-10-16T12:12:11.735Z,23.04
2017-10-16T12:12:25.193Z,22.97
2017-10-16T12:12:38.143Z,22.92
2017-10-16T12:12:51.058Z,22.96
2017-10-16T12:13:04.528Z,22.84
2017-10-16T12:13:17.446Z,22.81
2017-10-16T12:13:30.917Z,22.75
2017-10-16T12:13:43.819Z,22.67
2017-10-16T12:13:57.307Z,22.59